Terminal Aerodrome Forecast
Issued by NWS Omaha/Valley, NE

Home | Current Version | Previous Version | Text Only | Print | Product List | Glossary Off
Versions: 1 2 3 4 5 6 7 8 9 10 11 12 13 14 15 16 17 18 19 20

000
FTUS43 KOAX 131937 AAC
TAFOFK
TAF AMD
KOFK 131937Z 1320/1418 36025G34KT 1/4SM +SN FG OVC005
      TEMPO 1320/1322 1 1/2SM -SN BR OVC008
     FM132200 35025G33KT 1SM -SN BR OVC008
     FM140100 35022G30KT P6SM SCT008 OVC020
     FM140600 34020G26KT P6SM SCT020 BKN150=

USA.gov is the U.S. government's official web portal to all federal, state and local government web resources and services.